sensor_id;sensor_type;location;lat;lon;timestamp;P1;durP1;ratioP1;P2;durP2;ratioP2
46507;SDS011;32223;53.654;10.014;2023-05-07T00:01:01;10.25;;;8.10;;
46507;SDS011;32223;53.654;10.014;2023-05-07T00:03:27;11.57;;;8.02;;
46507;SDS011;32223;53.654;10.014;2023-05-07T00:05:53;13.45;;;8.77;;
46507;SDS011;32223;53.654;10.014;2023-05-07T00:08:19;13.13;;;8.18;;
46507;SDS011;32223;53.654;10.014;2023-05-07T00:10:45;13.20;;;8.88;;
46507;SDS011;32223;53.654;10.014;2023-05-07T00:13:11;11.35;;;7.75;;
46507;SDS011;32223;53.654;10.014;2023-05-07T00:15:37;12.05;;;8.10;;
46507;SDS011;32223;53.654;10.014;2023-05-07T00:18:02;10.98;;;7.47;;
46507;SDS011;32223;53.654;10.014;2023-05-07T00:20:28;10.13;;;6.93;;
46507;SDS011;32223;53.654;10.014;2023-05-07T00:22:53;10.85;;;7.60;;
46507;SDS011;32223;53.654;10.014;2023-05-07T00:25:19;10.30;;;6.68;;
46507;SDS011;32223;53.654;10.014;2023-05-07T00:27:45;9.75;;;7.07;;
46507;SDS011;32223;53.654;10.014;2023-05-07T00:30:10;11.80;;;7.10;;
46507;SDS011;32223;53.654;10.014;2023-05-07T00:32:36;9.95;;;7.18;;
46507;SDS011;32223;53.654;10.014;2023-05-07T00:35:03;11.15;;;7.18;;
46507;SDS011;32223;53.654;10.014;2023-05-07T00:37:29;11.95;;;7.15;;
46507;SDS011;32223;53.654;10.014;2023-05-07T00:39:55;11.55;;;7.25;;
46507;SDS011;32223;53.654;10.014;2023-05-07T00:42:21;12.77;;;7.78;;
46507;SDS011;32223;53.654;10.014;2023-05-07T00:44:46;11.30;;;7.93;;
46507;SDS011;32223;53.654;10.014;2023-05-07T00:47:12;11.57;;;7.18;;
46507;SDS011;32223;53.654;10.014;2023-05-07T00:49:39;11.20;;;7.35;;
46507;SDS011;32223;53.654;10.014;2023-05-07T00:52:07;11.55;;;7.38;;
46507;SDS011;32223;53.654;10.014;2023-05-07T00:54:36;11.68;;;7.82;;
46507;SDS011;32223;53.654;10.014;2023-05-07T00:57:02;11.70;;;7.43;;
46507;SDS011;32223;53.654;10.014;2023-05-07T00:59:29;13.05;;;7.18;;
46507;SDS011;32223;53.654;10.014;2023-05-07T01:01:56;13.20;;;7.28;;
46507;SDS011;32223;53.654;10.014;2023-05-07T01:04:22;13.43;;;7.53;;
46507;SDS011;32223;53.654;10.014;2023-05-07T01:06:47;11.48;;;6.95;;
46507;SDS011;32223;53.654;10.014;2023-05-07T01:09:15;9.98;;;6.65;;
46507;SDS011;32223;53.654;10.014;2023-05-07T01:11:40;11.00;;;7.40;;
46507;SDS011;32223;53.654;10.014;2023-05-07T01:14:07;11.65;;;7.03;;
46507;SDS011;32223;53.654;10.014;2023-05-07T01:16:34;10.70;;;7.35;;
46507;SDS011;32223;53.654;10.014;2023-05-07T01:19:00;11.25;;;6.72;;
46507;SDS011;32223;53.654;10.014;2023-05-07T01:21:26;11.40;;;7.60;;
46507;SDS011;32223;53.654;10.014;2023-05-07T01:23:55;12.38;;;7.18;;
46507;SDS011;32223;53.654;10.014;2023-05-07T01:26:22;13.27;;;8.13;;
46507;SDS011;32223;53.654;10.014;2023-05-07T01:28:48;12.48;;;7.10;;
46507;SDS011;32223;53.654;10.014;2023-05-07T01:31:14;12.30;;;7.55;;
46507;SDS011;32223;53.654;10.014;2023-05-07T01:33:42;11.88;;;7.22;;
46507;SDS011;32223;53.654;10.014;2023-05-07T01:36:11;15.20;;;8.13;;
46507;SDS011;32223;53.654;10.014;2023-05-07T01:38:38;14.48;;;8.07;;
46507;SDS011;32223;53.654;10.014;2023-05-07T01:41:06;11.70;;;7.75;;
46507;SDS011;32223;53.654;10.014;2023-05-07T01:43:32;10.57;;;6.80;;
46507;SDS011;32223;53.654;10.014;2023-05-07T01:45:58;11.95;;;6.68;;
46507;SDS011;32223;53.654;10.014;2023-05-07T01:48:25;11.38;;;6.75;;
46507;SDS011;32223;53.654;10.014;2023-05-07T01:50:51;11.80;;;5.95;;
46507;SDS011;32223;53.654;10.014;2023-05-07T01:53:17;10.02;;;6.13;;
46507;SDS011;32223;53.654;10.014;2023-05-07T01:55:42;12.30;;;7.47;;
46507;SDS011;32223;53.654;10.014;2023-05-07T01:58:08;10.38;;;7.05;;
46507;SDS011;32223;53.654;10.014;2023-05-07T02:00:34;8.27;;;5.85;;
46507;SDS011;32223;53.654;10.014;2023-05-07T02:02:59;8.65;;;5.78;;
46507;SDS011;32223;53.654;10.014;2023-05-07T02:05:25;9.30;;;5.85;;
46507;SDS011;32223;53.654;10.014;2023-05-07T02:07:50;12.40;;;7.32;;
46507;SDS011;32223;53.654;10.014;2023-05-07T02:10:16;9.75;;;6.45;;
46507;SDS011;32223;53.654;10.014;2023-05-07T02:12:41;12.93;;;6.97;;
46507;SDS011;32223;53.654;10.014;2023-05-07T02:15:07;8.45;;;5.80;;
46507;SDS011;32223;53.654;10.014;2023-05-07T02:17:34;9.63;;;6.35;;
46507;SDS011;32223;53.654;10.014;2023-05-07T02:20:00;9.32;;;5.65;;
46507;SDS011;32223;53.654;10.014;2023-05-07T02:22:25;9.30;;;6.53;;
46507;SDS011;32223;53.654;10.014;2023-05-07T02:24:51;8.23;;;6.25;;
46507;SDS011;32223;53.654;10.014;2023-05-07T02:27:17;8.65;;;5.30;;
46507;SDS011;32223;53.654;10.014;2023-05-07T02:29:42;9.40;;;6.70;;
46507;SDS011;32223;53.654;10.014;2023-05-07T02:32:08;12.20;;;6.25;;
46507;SDS011;32223;53.654;10.014;2023-05-07T02:34:33;9.43;;;6.03;;
46507;SDS011;32223;53.654;10.014;2023-05-07T02:36:59;8.77;;;5.65;;
46507;SDS011;32223;53.654;10.014;2023-05-07T02:39:25;9.40;;;5.85;;
46507;SDS011;32223;53.654;10.014;2023-05-07T02:41:50;11.02;;;6.93;;
46507;SDS011;32223;53.654;10.014;2023-05-07T02:44:16;9.05;;;6.43;;
46507;SDS011;32223;53.654;10.014;2023-05-07T02:46:41;9.80;;;6.47;;
46507;SDS011;32223;53.654;10.014;2023-05-07T02:49:07;10.30;;;6.60;;
46507;SDS011;32223;53.654;10.014;2023-05-07T02:51:32;10.63;;;6.50;;
46507;SDS011;32223;53.654;10.014;2023-05-07T02:53:58;9.63;;;6.70;;
46507;SDS011;32223;53.654;10.014;2023-05-07T02:56:26;10.77;;;7.03;;
46507;SDS011;32223;53.654;10.014;2023-05-07T02:58:52;8.57;;;6.20;;
46507;SDS011;32223;53.654;10.014;2023-05-07T03:01:17;12.32;;;6.95;;
46507;SDS011;32223;53.654;10.014;2023-05-07T03:03:43;10.02;;;6.68;;
46507;SDS011;32223;53.654;10.014;2023-05-07T03:06:09;10.23;;;6.05;;
46507;SDS011;32223;53.654;10.014;2023-05-07T03:08:35;10.00;;;6.80;;
46507;SDS011;32223;53.654;10.014;2023-05-07T03:11:01;9.98;;;6.97;;
46507;SDS011;32223;53.654;10.014;2023-05-07T03:13:27;10.18;;;6.97;;
46507;SDS011;32223;53.654;10.014;2023-05-07T03:15:53;11.48;;;7.15;;
46507;SDS011;32223;53.654;10.014;2023-05-07T03:18:19;10.95;;;6.90;;
46507;SDS011;32223;53.654;10.014;2023-05-07T03:20:44;9.68;;;6.50;;
46507;SDS011;32223;53.654;10.014;2023-05-07T03:23:10;12.10;;;7.45;;
46507;SDS011;32223;53.654;10.014;2023-05-07T03:25:35;8.65;;;5.80;;
46507;SDS011;32223;53.654;10.014;2023-05-07T03:28:01;11.10;;;6.78;;
46507;SDS011;32223;53.654;10.014;2023-05-07T03:30:26;9.30;;;6.35;;
46507;SDS011;32223;53.654;10.014;2023-05-07T03:32:52;10.93;;;6.60;;
46507;SDS011;32223;53.654;10.014;2023-05-07T03:35:18;8.65;;;6.65;;
46507;SDS011;32223;53.654;10.014;2023-05-07T03:37:43;9.95;;;6.32;;
46507;SDS011;32223;53.654;10.014;2023-05-07T03:40:09;10.07;;;7.00;;
46507;SDS011;32223;53.654;10.014;2023-05-07T03:42:35;10.73;;;6.47;;
46507;SDS011;32223;53.654;10.014;2023-05-07T03:45:01;9.93;;;6.80;;
46507;SDS011;32223;53.654;10.014;2023-05-07T03:47:27;11.20;;;7.05;;
46507;SDS011;32223;53.654;10.014;2023-05-07T03:49:52;9.10;;;6.20;;
46507;SDS011;32223;53.654;10.014;2023-05-07T03:52:19;10.55;;;6.10;;
46507;SDS011;32223;53.654;10.014;2023-05-07T03:54:48;9.40;;;6.38;;
46507;SDS011;32223;53.654;10.014;2023-05-07T03:57:14;9.65;;;6.80;;
46507;SDS011;32223;53.654;10.014;2023-05-07T03:59:40;9.27;;;6.75;;
46507;SDS011;32223;53.654;10.014;2023-05-07T04:02:05;11.40;;;6.88;;
46507;SDS011;32223;53.654;10.014;2023-05-07T04:04:31;10.10;;;6.95;;
46507;SDS011;32223;53.654;10.014;2023-05-07T04:06:57;10.02;;;6.68;;
46507;SDS011;32223;53.654;10.014;2023-05-07T04:09:24;12.20;;;7.13;;
46507;SDS011;32223;53.654;10.014;2023-05-07T04:11:50;8.63;;;6.15;;
46507;SDS011;32223;53.654;10.014;2023-05-07T04:14:15;10.40;;;6.38;;
46507;SDS011;32223;53.654;10.014;2023-05-07T04:16:41;9.95;;;6.78;;
46507;SDS011;32223;53.654;10.014;2023-05-07T04:19:06;12.00;;;6.55;;
46507;SDS011;32223;53.654;10.014;2023-05-07T04:21:32;9.13;;;6.38;;
46507;SDS011;32223;53.654;10.014;2023-05-07T04:23:58;8.25;;;5.88;;
46507;SDS011;32223;53.654;10.014;2023-05-07T04:26:23;8.85;;;6.50;;
46507;SDS011;32223;53.654;10.014;2023-05-07T04:28:49;9.82;;;6.43;;
46507;SDS011;32223;53.654;10.014;2023-05-07T04:31:15;8.85;;;6.70;;
46507;SDS011;32223;53.654;10.014;2023-05-07T04:33:40;8.80;;;5.97;;
46507;SDS011;32223;53.654;10.014;2023-05-07T04:36:06;8.43;;;6.47;;
46507;SDS011;32223;53.654;10.014;2023-05-07T04:38:32;9.68;;;6.93;;
46507;SDS011;32223;53.654;10.014;2023-05-07T04:41:04;9.70;;;6.28;;
46507;SDS011;32223;53.654;10.014;2023-05-07T04:43:31;9.95;;;6.63;;
46507;SDS011;32223;53.654;10.014;2023-05-07T04:45:57;9.63;;;6.28;;
46507;SDS011;32223;53.654;10.014;2023-05-07T04:48:22;10.20;;;6.28;;
46507;SDS011;32223;53.654;10.014;2023-05-07T04:50:48;11.77;;;5.82;;
46507;SDS011;32223;53.654;10.014;2023-05-07T04:53:15;9.43;;;6.20;;
46507;SDS011;32223;53.654;10.014;2023-05-07T04:55:41;9.60;;;5.72;;
46507;SDS011;32223;53.654;10.014;2023-05-07T04:58:06;8.73;;;6.05;;
46507;SDS011;32223;53.654;10.014;2023-05-07T05:00:32;9.30;;;5.60;;
46507;SDS011;32223;53.654;10.014;2023-05-07T05:02:58;8.77;;;5.78;;
46507;SDS011;32223;53.654;10.014;2023-05-07T05:05:24;8.63;;;5.72;;
46507;SDS011;32223;53.654;10.014;2023-05-07T05:07:50;9.05;;;5.47;;
46507;SDS011;32223;53.654;10.014;2023-05-07T05:10:16;9.38;;;5.60;;
46507;SDS011;32223;53.654;10.014;2023-05-07T05:12:42;7.90;;;4.78;;
46507;SDS011;32223;53.654;10.014;2023-05-07T05:15:08;6.90;;;4.43;;
46507;SDS011;32223;53.654;10.014;2023-05-07T05:17:35;8.13;;;5.40;;
46507;SDS011;32223;53.654;10.014;2023-05-07T05:20:01;7.55;;;4.57;;
46507;SDS011;32223;53.654;10.014;2023-05-07T05:22:27;7.95;;;5.10;;
46507;SDS011;32223;53.654;10.014;2023-05-07T05:24:55;7.20;;;4.82;;
46507;SDS011;32223;53.654;10.014;2023-05-07T05:27:21;9.45;;;5.35;;
46507;SDS011;32223;53.654;10.014;2023-05-07T05:29:47;7.80;;;5.47;;
46507;SDS011;32223;53.654;10.014;2023-05-07T05:32:12;9.15;;;5.50;;
46507;SDS011;32223;53.654;10.014;2023-05-07T05:34:38;8.95;;;5.25;;
46507;SDS011;32223;53.654;10.014;2023-05-07T05:37:04;9.45;;;4.28;;
46507;SDS011;32223;53.654;10.014;2023-05-07T05:39:29;7.35;;;4.65;;
46507;SDS011;32223;53.654;10.014;2023-05-07T05:41:55;9.13;;;5.05;;
46507;SDS011;32223;53.654;10.014;2023-05-07T05:44:21;7.65;;;5.47;;
46507;SDS011;32223;53.654;10.014;2023-05-07T05:46:46;7.65;;;4.80;;
46507;SDS011;32223;53.654;10.014;2023-05-07T05:49:14;8.15;;;4.47;;
46507;SDS011;32223;53.654;10.014;2023-05-07T05:51:40;7.35;;;4.90;;
46507;SDS011;32223;53.654;10.014;2023-05-07T05:54:05;7.28;;;5.38;;
46507;SDS011;32223;53.654;10.014;2023-05-07T05:56:31;10.35;;;5.35;;
46507;SDS011;32223;53.654;10.014;2023-05-07T05:58:57;7.72;;;4.78;;
46507;SDS011;32223;53.654;10.014;2023-05-07T06:01:23;7.80;;;5.25;;
46507;SDS011;32223;53.654;10.014;2023-05-07T06:03:48;6.88;;;4.70;;
46507;SDS011;32223;53.654;10.014;2023-05-07T06:06:15;7.43;;;5.35;;
46507;SDS011;32223;53.654;10.014;2023-05-07T06:08:41;7.10;;;4.75;;
46507;SDS011;32223;53.654;10.014;2023-05-07T06:11:07;9.43;;;5.13;;
46507;SDS011;32223;53.654;10.014;2023-05-07T06:13:33;7.80;;;5.43;;
46507;SDS011;32223;53.654;10.014;2023-05-07T06:15:58;9.98;;;6.78;;
46507;SDS011;32223;53.654;10.014;2023-05-07T06:18:24;7.78;;;4.75;;
46507;SDS011;32223;53.654;10.014;2023-05-07T06:20:50;7.32;;;5.05;;
46507;SDS011;32223;53.654;10.014;2023-05-07T06:23:16;6.60;;;4.82;;
46507;SDS011;32223;53.654;10.014;2023-05-07T06:25:42;7.45;;;4.72;;
46507;SDS011;32223;53.654;10.014;2023-05-07T06:28:14;11.52;;;5.43;;
46507;SDS011;32223;53.654;10.014;2023-05-07T06:30:39;7.20;;;5.05;;
46507;SDS011;32223;53.654;10.014;2023-05-07T06:33:05;6.60;;;4.82;;
46507;SDS011;32223;53.654;10.014;2023-05-07T06:35:31;8.23;;;5.47;;
46507;SDS011;32223;53.654;10.014;2023-05-07T06:37:56;7.35;;;5.13;;
46507;SDS011;32223;53.654;10.014;2023-05-07T06:40:22;6.75;;;4.65;;
46507;SDS011;32223;53.654;10.014;2023-05-07T06:42:47;6.88;;;5.15;;
46507;SDS011;32223;53.654;10.014;2023-05-07T06:45:13;6.07;;;4.45;;
46507;SDS011;32223;53.654;10.014;2023-05-07T06:47:39;8.50;;;4.88;;
46507;SDS011;32223;53.654;10.014;2023-05-07T06:50:05;8.15;;;5.00;;
46507;SDS011;32223;53.654;10.014;2023-05-07T06:52:31;6.30;;;4.18;;
46507;SDS011;32223;53.654;10.014;2023-05-07T06:54:56;6.60;;;3.78;;
46507;SDS011;32223;53.654;10.014;2023-05-07T06:57:22;6.85;;;4.65;;
46507;SDS011;32223;53.654;10.014;2023-05-07T06:59:49;7.03;;;3.90;;
46507;SDS011;32223;53.654;10.014;2023-05-07T07:02:14;5.55;;;3.63;;
46507;SDS011;32223;53.654;10.014;2023-05-07T07:04:40;5.32;;;4.22;;
46507;SDS011;32223;53.654;10.014;2023-05-07T07:07:06;7.80;;;4.30;;
46507;SDS011;32223;53.654;10.014;2023-05-07T07:09:32;7.90;;;4.15;;
46507;SDS011;32223;53.654;10.014;2023-05-07T07:11:58;7.70;;;4.43;;
46507;SDS011;32223;53.654;10.014;2023-05-07T07:14:24;7.10;;;4.38;;
46507;SDS011;32223;53.654;10.014;2023-05-07T07:16:49;5.47;;;4.03;;
46507;SDS011;32223;53.654;10.014;2023-05-07T07:19:15;6.45;;;3.78;;
46507;SDS011;32223;53.654;10.014;2023-05-07T07:21:41;6.95;;;4.28;;
46507;SDS011;32223;53.654;10.014;2023-05-07T07:24:07;6.03;;;4.05;;
46507;SDS011;32223;53.654;10.014;2023-05-07T07:26:32;8.25;;;4.78;;
46507;SDS011;32223;53.654;10.014;2023-05-07T07:28:58;4.88;;;3.78;;
46507;SDS011;32223;53.654;10.014;2023-05-07T07:31:24;7.07;;;3.95;;
46507;SDS011;32223;53.654;10.014;2023-05-07T07:33:49;7.30;;;4.43;;
46507;SDS011;32223;53.654;10.014;2023-05-07T07:36:15;7.75;;;4.30;;
46507;SDS011;32223;53.654;10.014;2023-05-07T07:38:41;5.78;;;4.03;;
46507;SDS011;32223;53.654;10.014;2023-05-07T07:41:07;6.25;;;3.58;;
46507;SDS011;32223;53.654;10.014;2023-05-07T07:43:33;5.30;;;3.63;;
46507;SDS011;32223;53.654;10.014;2023-05-07T07:46:00;4.93;;;3.35;;
46507;SDS011;32223;53.654;10.014;2023-05-07T07:48:26;5.15;;;3.85;;
46507;SDS011;32223;53.654;10.014;2023-05-07T07:50:51;5.55;;;3.70;;
46507;SDS011;32223;53.654;10.014;2023-05-07T07:53:17;8.15;;;3.92;;
46507;SDS011;32223;53.654;10.014;2023-05-07T07:55:43;6.43;;;4.07;;
46507;SDS011;32223;53.654;10.014;2023-05-07T07:58:08;6.20;;;3.78;;
46507;SDS011;32223;53.654;10.014;2023-05-07T08:00:34;4.47;;;3.38;;
46507;SDS011;32223;53.654;10.014;2023-05-07T08:03:00;5.75;;;3.95;;
46507;SDS011;32223;53.654;10.014;2023-05-07T08:05:26;4.72;;;3.38;;
46507;SDS011;32223;53.654;10.014;2023-05-07T08:07:51;5.93;;;3.80;;
46507;SDS011;32223;53.654;10.014;2023-05-07T08:10:18;4.50;;;3.10;;
46507;SDS011;32223;53.654;10.014;2023-05-07T08:12:46;4.60;;;3.35;;
46507;SDS011;32223;53.654;10.014;2023-05-07T08:15:15;6.18;;;3.00;;
46507;SDS011;32223;53.654;10.014;2023-05-07T08:17:41;4.85;;;4.00;;
46507;SDS011;32223;53.654;10.014;2023-05-07T08:20:07;5.97;;;4.13;;
46507;SDS011;32223;53.654;10.014;2023-05-07T08:22:34;6.32;;;4.28;;
46507;SDS011;32223;53.654;10.014;2023-05-07T08:25:00;5.57;;;3.65;;
46507;SDS011;32223;53.654;10.014;2023-05-07T08:27:26;7.85;;;4.97;;
46507;SDS011;32223;53.654;10.014;2023-05-07T08:29:51;5.28;;;3.35;;
46507;SDS011;32223;53.654;10.014;2023-05-07T08:32:17;7.25;;;5.00;;
46507;SDS011;32223;53.654;10.014;2023-05-07T08:34:43;5.55;;;3.90;;
46507;SDS011;32223;53.654;10.014;2023-05-07T08:37:08;6.63;;;4.03;;
46507;SDS011;32223;53.654;10.014;2023-05-07T08:39:34;7.43;;;4.45;;
46507;SDS011;32223;53.654;10.014;2023-05-07T08:42:00;6.22;;;4.18;;
46507;SDS011;32223;53.654;10.014;2023-05-07T08:44:29;6.32;;;4.43;;
46507;SDS011;32223;53.654;10.014;2023-05-07T08:46:58;7.82;;;5.47;;
46507;SDS011;32223;53.654;10.014;2023-05-07T08:49:27;4.90;;;3.38;;
46507;SDS011;32223;53.654;10.014;2023-05-07T08:51:53;5.53;;;3.88;;
46507;SDS011;32223;53.654;10.014;2023-05-07T08:54:20;7.20;;;3.95;;
46507;SDS011;32223;53.654;10.014;2023-05-07T08:56:46;4.55;;;3.30;;
46507;SDS011;32223;53.654;10.014;2023-05-07T08:59:12;6.15;;;3.35;;
46507;SDS011;32223;53.654;10.014;2023-05-07T09:01:38;4.85;;;3.50;;
46507;SDS011;32223;53.654;10.014;2023-05-07T09:04:04;4.57;;;3.38;;
46507;SDS011;32223;53.654;10.014;2023-05-07T09:06:30;6.93;;;3.60;;
46507;SDS011;32223;53.654;10.014;2023-05-07T09:08:56;5.45;;;3.33;;
46507;SDS011;32223;53.654;10.014;2023-05-07T09:11:23;5.95;;;3.45;;
46507;SDS011;32223;53.654;10.014;2023-05-07T09:13:53;4.55;;;3.13;;
46507;SDS011;32223;53.654;10.014;2023-05-07T09:16:26;4.28;;;2.92;;
46507;SDS011;32223;53.654;10.014;2023-05-07T09:18:52;5.03;;;3.17;;
46507;SDS011;32223;53.654;10.014;2023-05-07T09:21:19;5.35;;;3.63;;
46507;SDS011;32223;53.654;10.014;2023-05-07T09:23:47;4.88;;;3.08;;
46507;SDS011;32223;53.654;10.014;2023-05-07T09:26:14;4.38;;;3.13;;
46507;SDS011;32223;53.654;10.014;2023-05-07T09:28:42;4.43;;;2.92;;
46507;SDS011;32223;53.654;10.014;2023-05-07T09:31:08;5.80;;;3.08;;
46507;SDS011;32223;53.654;10.014;2023-05-07T09:33:35;4.00;;;2.35;;
46507;SDS011;32223;53.654;10.014;2023-05-07T09:36:07;4.68;;;3.17;;
46507;SDS011;32223;53.654;10.014;2023-05-07T09:38:35;5.78;;;3.47;;
46507;SDS011;32223;53.654;10.014;2023-05-07T09:41:02;4.88;;;2.40;;
46507;SDS011;32223;53.654;10.014;2023-05-07T09:43:34;5.45;;;3.00;;
46507;SDS011;32223;53.654;10.014;2023-05-07T09:46:08;4.57;;;2.85;;
46507;SDS011;32223;53.654;10.014;2023-05-07T09:48:38;4.80;;;2.95;;
46507;SDS011;32223;53.654;10.014;2023-05-07T09:51:08;4.80;;;2.47;;
46507;SDS011;32223;53.654;10.014;2023-05-07T09:53:53;6.70;;;2.85;;
46507;SDS011;32223;53.654;10.014;2023-05-07T09:56:21;3.85;;;2.60;;
46507;SDS011;32223;53.654;10.014;2023-05-07T09:58:47;10.30;;;5.70;;
46507;SDS011;32223;53.654;10.014;2023-05-07T10:01:14;6.78;;;3.35;;
46507;SDS011;32223;53.654;10.014;2023-05-07T10:03:42;4.45;;;2.92;;
46507;SDS011;32223;53.654;10.014;2023-05-07T10:06:09;3.97;;;2.95;;
46507;SDS011;32223;53.654;10.014;2023-05-07T10:08:35;4.10;;;2.80;;
46507;SDS011;32223;53.654;10.014;2023-05-07T10:11:03;8.90;;;3.33;;
46507;SDS011;32223;53.654;10.014;2023-05-07T10:13:31;4.55;;;2.63;;
46507;SDS011;32223;53.654;10.014;2023-05-07T10:16:00;14.25;;;7.35;;
46507;SDS011;32223;53.654;10.014;2023-05-07T10:18:26;5.47;;;3.50;;
46507;SDS011;32223;53.654;10.014;2023-05-07T10:20:54;4.60;;;3.20;;
46507;SDS011;32223;53.654;10.014;2023-05-07T10:23:35;4.55;;;3.03;;
46507;SDS011;32223;53.654;10.014;2023-05-07T10:26:02;7.45;;;4.25;;
46507;SDS011;32223;53.654;10.014;2023-05-07T10:28:30;6.53;;;3.20;;
46507;SDS011;32223;53.654;10.014;2023-05-07T10:33:41;4.60;;;2.88;;
46507;SDS011;32223;53.654;10.014;2023-05-07T10:36:09;4.05;;;2.10;;
46507;SDS011;32223;53.654;10.014;2023-05-07T10:38:35;4.30;;;2.35;;
46507;SDS011;32223;53.654;10.014;2023-05-07T10:41:01;5.50;;;2.70;;
46507;SDS011;32223;53.654;10.014;2023-05-07T10:43:42;5.90;;;3.17;;
46507;SDS011;32223;53.654;10.014;2023-05-07T10:46:09;6.75;;;2.95;;
46507;SDS011;32223;53.654;10.014;2023-05-07T10:51:31;5.38;;;3.08;;
46507;SDS011;32223;53.654;10.014;2023-05-07T10:56:38;6.15;;;2.90;;
46507;SDS011;32223;53.654;10.014;2023-05-07T10:59:41;3.53;;;2.58;;
46507;SDS011;32223;53.654;10.014;2023-05-07T11:02:05;5.32;;;3.47;;
46507;SDS011;32223;53.654;10.014;2023-05-07T11:04:32;10.10;;;4.65;;
46507;SDS011;32223;53.654;10.014;2023-05-07T11:17:29;3.83;;;2.55;;
46507;SDS011;32223;53.654;10.014;2023-05-07T11:19:59;6.22;;;2.60;;
46507;SDS011;32223;53.654;10.014;2023-05-07T11:25:04;3.35;;;2.65;;
46507;SDS011;32223;53.654;10.014;2023-05-07T11:27:31;3.38;;;2.28;;
46507;SDS011;32223;53.654;10.014;2023-05-07T11:29:57;3.10;;;2.30;;
46507;SDS011;32223;53.654;10.014;2023-05-07T11:32:30;4.18;;;2.15;;
46507;SDS011;32223;53.654;10.014;2023-05-07T11:34:58;2.95;;;2.20;;
46507;SDS011;32223;53.654;10.014;2023-05-07T11:37:25;4.00;;;2.30;;
46507;SDS011;32223;53.654;10.014;2023-05-07T11:40:02;4.88;;;2.20;;
46507;SDS011;32223;53.654;10.014;2023-05-07T11:42:36;3.42;;;1.50;;
46507;SDS011;32223;53.654;10.014;2023-05-07T11:45:03;2.67;;;2.00;;
46507;SDS011;32223;53.654;10.014;2023-05-07T11:47:30;3.63;;;2.05;;
46507;SDS011;32223;53.654;10.014;2023-05-07T11:49:57;3.58;;;1.90;;
46507;SDS011;32223;53.654;10.014;2023-05-07T11:52:32;1.98;;;1.30;;
46507;SDS011;32223;53.654;10.014;2023-05-07T11:54:58;2.25;;;1.55;;
46507;SDS011;32223;53.654;10.014;2023-05-07T11:57:25;3.88;;;2.30;;
46507;SDS011;32223;53.654;10.014;2023-05-07T11:59:58;3.88;;;1.70;;
46507;SDS011;32223;53.654;10.014;2023-05-07T12:02:27;4.03;;;1.97;;
46507;SDS011;32223;53.654;10.014;2023-05-07T12:04:53;2.97;;;2.05;;
46507;SDS011;32223;53.654;10.014;2023-05-07T12:07:19;2.38;;;1.70;;
46507;SDS011;32223;53.654;10.014;2023-05-07T12:09:46;2.67;;;1.60;;
46507;SDS011;32223;53.654;10.014;2023-05-07T12:12:12;3.90;;;2.13;;
46507;SDS011;32223;53.654;10.014;2023-05-07T12:14:44;3.00;;;1.42;;
46507;SDS011;32223;53.654;10.014;2023-05-07T12:17:11;1.98;;;1.40;;
46507;SDS011;32223;53.654;10.014;2023-05-07T12:19:38;2.83;;;1.50;;
46507;SDS011;32223;53.654;10.014;2023-05-07T12:22:05;2.72;;;1.40;;
46507;SDS011;32223;53.654;10.014;2023-05-07T12:24:46;1.77;;;1.48;;
46507;SDS011;32223;53.654;10.014;2023-05-07T12:27:12;2.75;;;1.98;;
46507;SDS011;32223;53.654;10.014;2023-05-07T12:29:39;2.30;;;1.73;;
46507;SDS011;32223;53.654;10.014;2023-05-07T12:32:06;2.97;;;1.60;;
46507;SDS011;32223;53.654;10.014;2023-05-07T12:34:32;4.22;;;2.78;;
46507;SDS011;32223;53.654;10.014;2023-05-07T12:37:01;2.22;;;1.52;;
46507;SDS011;32223;53.654;10.014;2023-05-07T12:39:28;3.33;;;1.20;;
46507;SDS011;32223;53.654;10.014;2023-05-07T12:41:54;3.53;;;1.58;;
46507;SDS011;32223;53.654;10.014;2023-05-07T12:44:24;2.03;;;1.42;;
46507;SDS011;32223;53.654;10.014;2023-05-07T12:46:53;2.70;;;1.58;;
46507;SDS011;32223;53.654;10.014;2023-05-07T12:49:19;3.35;;;1.50;;
46507;SDS011;32223;53.654;10.014;2023-05-07T12:51:46;2.15;;;1.40;;
46507;SDS011;32223;53.654;10.014;2023-05-07T12:54:13;1.80;;;1.10;;
46507;SDS011;32223;53.654;10.014;2023-05-07T12:56:59;2.10;;;1.27;;
46507;SDS011;32223;53.654;10.014;2023-05-07T12:59:41;2.17;;;1.50;;
46507;SDS011;32223;53.654;10.014;2023-05-07T13:02:07;1.52;;;1.40;;
46507;SDS011;32223;53.654;10.014;2023-05-07T13:04:34;2.70;;;1.27;;
46507;SDS011;32223;53.654;10.014;2023-05-07T13:07:00;2.97;;;1.10;;
46507;SDS011;32223;53.654;10.014;2023-05-07T13:09:26;2.00;;;1.20;;
46507;SDS011;32223;53.654;10.014;2023-05-07T13:11:53;2.00;;;1.05;;
46507;SDS011;32223;53.654;10.014;2023-05-07T13:14:19;1.75;;;1.25;;
46507;SDS011;32223;53.654;10.014;2023-05-07T13:16:45;1.88;;;1.33;;
46507;SDS011;32223;53.654;10.014;2023-05-07T13:19:12;1.88;;;1.10;;
46507;SDS011;32223;53.654;10.014;2023-05-07T13:21:37;1.70;;;1.05;;
46507;SDS011;32223;53.654;10.014;2023-05-07T13:24:03;3.13;;;1.20;;
46507;SDS011;32223;53.654;10.014;2023-05-07T13:26:29;1.98;;;1.15;;
46507;SDS011;32223;53.654;10.014;2023-05-07T13:28:55;1.73;;;1.02;;
46507;SDS011;32223;53.654;10.014;2023-05-07T13:31:21;2.22;;;0.88;;
46507;SDS011;32223;53.654;10.014;2023-05-07T13:33:47;2.28;;;1.20;;
46507;SDS011;32223;53.654;10.014;2023-05-07T13:36:12;1.98;;;1.30;;
46507;SDS011;32223;53.654;10.014;2023-05-07T13:38:39;2.38;;;1.50;;
46507;SDS011;32223;53.654;10.014;2023-05-07T13:41:05;2.22;;;1.20;;
46507;SDS011;32223;53.654;10.014;2023-05-07T13:43:30;2.20;;;1.10;;
46507;SDS011;32223;53.654;10.014;2023-05-07T13:45:58;2.42;;;1.17;;
46507;SDS011;32223;53.654;10.014;2023-05-07T13:48:24;2.95;;;1.00;;
46507;SDS011;32223;53.654;10.014;2023-05-07T13:50:50;2.20;;;1.50;;
46507;SDS011;32223;53.654;10.014;2023-05-07T13:53:16;2.47;;;1.10;;
46507;SDS011;32223;53.654;10.014;2023-05-07T13:55:43;1.23;;;1.00;;
46507;SDS011;32223;53.654;10.014;2023-05-07T13:58:09;2.30;;;1.30;;
46507;SDS011;32223;53.654;10.014;2023-05-07T14:00:36;2.30;;;1.10;;
46507;SDS011;32223;53.654;10.014;2023-05-07T14:03:01;2.00;;;1.13;;
46507;SDS011;32223;53.654;10.014;2023-05-07T14:05:28;1.58;;;0.80;;
46507;SDS011;32223;53.654;10.014;2023-05-07T14:07:54;2.33;;;1.02;;
46507;SDS011;32223;53.654;10.014;2023-05-07T14:10:21;2.60;;;1.40;;
46507;SDS011;32223;53.654;10.014;2023-05-07T14:12:47;15.95;;;6.28;;
46507;SDS011;32223;53.654;10.014;2023-05-07T14:15:13;2.15;;;1.15;;
46507;SDS011;32223;53.654;10.014;2023-05-07T14:17:39;10.68;;;4.32;;
46507;SDS011;32223;53.654;10.014;2023-05-07T14:20:04;8.05;;;3.40;;
46507;SDS011;32223;53.654;10.014;2023-05-07T14:22:31;58.88;;;24.45;;
46507;SDS011;32223;53.654;10.014;2023-05-07T14:24:57;3.42;;;1.95;;
46507;SDS011;32223;53.654;10.014;2023-05-07T14:27:23;2.00;;;1.27;;
46507;SDS011;32223;53.654;10.014;2023-05-07T14:29:48;6.00;;;2.08;;
46507;SDS011;32223;53.654;10.014;2023-05-07T14:32:16;2.90;;;1.55;;
46507;SDS011;32223;53.654;10.014;2023-05-07T14:34:43;5.07;;;3.05;;
46507;SDS011;32223;53.654;10.014;2023-05-07T14:37:09;3.38;;;1.83;;
46507;SDS011;32223;53.654;10.014;2023-05-07T14:39:35;1.98;;;1.20;;
46507;SDS011;32223;53.654;10.014;2023-05-07T14:42:00;3.72;;;1.20;;
46507;SDS011;32223;53.654;10.014;2023-05-07T14:44:26;2.25;;;1.13;;
46507;SDS011;32223;53.654;10.014;2023-05-07T14:46:52;2.67;;;1.70;;
46507;SDS011;32223;53.654;10.014;2023-05-07T14:49:17;5.47;;;1.55;;